sensor_id;sensor_type;location;lat;lon;timestamp;P1;durP1;ratioP1;P2;durP2;ratioP2
6485;SDS011;3276;48.490;9.222;2023-06-22T00:00:42;12.60;;;5.73;;
6485;SDS011;3276;48.490;9.222;2023-06-22T00:03:07;10.37;;;6.93;;
6485;SDS011;3276;48.490;9.222;2023-06-22T00:05:33;8.93;;;5.30;;
6485;SDS011;3276;48.490;9.222;2023-06-22T00:08:01;7.40;;;5.97;;
6485;SDS011;3276;48.490;9.222;2023-06-22T00:10:28;7.60;;;5.70;;
6485;SDS011;3276;48.490;9.222;2023-06-22T00:12:53;7.57;;;6.20;;
6485;SDS011;3276;48.490;9.222;2023-06-22T00:15:19;6.97;;;4.80;;
6485;SDS011;3276;48.490;9.222;2023-06-22T00:17:45;12.13;;;5.50;;
6485;SDS011;3276;48.490;9.222;2023-06-22T00:20:10;7.40;;;5.60;;
6485;SDS011;3276;48.490;9.222;2023-06-22T00:22:36;7.87;;;5.97;;
6485;SDS011;3276;48.490;9.222;2023-06-22T00:25:04;7.27;;;5.87;;
6485;SDS011;3276;48.490;9.222;2023-06-22T00:27:34;7.03;;;5.00;;
6485;SDS011;3276;48.490;9.222;2023-06-22T00:30:00;7.47;;;5.30;;
6485;SDS011;3276;48.490;9.222;2023-06-22T00:32:25;7.20;;;5.50;;
6485;SDS011;3276;48.490;9.222;2023-06-22T00:34:51;6.30;;;5.10;;
6485;SDS011;3276;48.490;9.222;2023-06-22T00:37:17;7.17;;;4.87;;
6485;SDS011;3276;48.490;9.222;2023-06-22T00:39:43;8.73;;;5.70;;
6485;SDS011;3276;48.490;9.222;2023-06-22T00:42:09;7.40;;;6.53;;
6485;SDS011;3276;48.490;9.222;2023-06-22T00:44:35;10.13;;;7.20;;
6485;SDS011;3276;48.490;9.222;2023-06-22T00:47:01;8.57;;;5.40;;
6485;SDS011;3276;48.490;9.222;2023-06-22T00:49:27;8.63;;;6.27;;
6485;SDS011;3276;48.490;9.222;2023-06-22T00:51:53;6.70;;;5.80;;
6485;SDS011;3276;48.490;9.222;2023-06-22T00:54:19;5.63;;;5.10;;
6485;SDS011;3276;48.490;9.222;2023-06-22T00:56:50;6.00;;;5.00;;
6485;SDS011;3276;48.490;9.222;2023-06-22T00:59:21;12.33;;;6.20;;
6485;SDS011;3276;48.490;9.222;2023-06-22T01:01:47;10.70;;;6.77;;
6485;SDS011;3276;48.490;9.222;2023-06-22T01:04:12;7.97;;;6.53;;
6485;SDS011;3276;48.490;9.222;2023-06-22T01:06:40;13.30;;;5.97;;
6485;SDS011;3276;48.490;9.222;2023-06-22T01:09:16;8.17;;;6.40;;
6485;SDS011;3276;48.490;9.222;2023-06-22T01:11:51;7.20;;;5.80;;
6485;SDS011;3276;48.490;9.222;2023-06-22T01:14:23;12.00;;;6.87;;
6485;SDS011;3276;48.490;9.222;2023-06-22T01:16:57;10.07;;;5.30;;
6485;SDS011;3276;48.490;9.222;2023-06-22T01:22:03;8.43;;;6.27;;
6485;SDS011;3276;48.490;9.222;2023-06-22T01:24:33;9.53;;;6.60;;
6485;SDS011;3276;48.490;9.222;2023-06-22T01:29:50;9.53;;;6.87;;
6485;SDS011;3276;48.490;9.222;2023-06-22T01:32:17;12.17;;;6.70;;
6485;SDS011;3276;48.490;9.222;2023-06-22T01:34:44;6.57;;;5.40;;
6485;SDS011;3276;48.490;9.222;2023-06-22T01:37:12;8.60;;;6.20;;
6485;SDS011;3276;48.490;9.222;2023-06-22T01:39:38;8.40;;;6.10;;
6485;SDS011;3276;48.490;9.222;2023-06-22T01:42:04;6.27;;;5.30;;
6485;SDS011;3276;48.490;9.222;2023-06-22T01:44:31;9.63;;;5.77;;
6485;SDS011;3276;48.490;9.222;2023-06-22T01:46:57;6.50;;;5.33;;
6485;SDS011;3276;48.490;9.222;2023-06-22T01:49:23;8.83;;;6.50;;
6485;SDS011;3276;48.490;9.222;2023-06-22T01:51:49;8.17;;;6.97;;
6485;SDS011;3276;48.490;9.222;2023-06-22T01:54:15;8.83;;;6.23;;
6485;SDS011;3276;48.490;9.222;2023-06-22T01:56:40;6.00;;;5.30;;
6485;SDS011;3276;48.490;9.222;2023-06-22T01:59:17;7.73;;;6.33;;
6485;SDS011;3276;48.490;9.222;2023-06-22T02:02:07;7.67;;;6.87;;
6485;SDS011;3276;48.490;9.222;2023-06-22T02:04:42;10.60;;;7.30;;
6485;SDS011;3276;48.490;9.222;2023-06-22T02:07:13;9.30;;;6.63;;
6485;SDS011;3276;48.490;9.222;2023-06-22T02:09:42;7.40;;;6.27;;
6485;SDS011;3276;48.490;9.222;2023-06-22T02:12:11;8.00;;;6.70;;
6485;SDS011;3276;48.490;9.222;2023-06-22T02:14:38;15.63;;;7.40;;
6485;SDS011;3276;48.490;9.222;2023-06-22T02:17:05;8.50;;;5.93;;
6485;SDS011;3276;48.490;9.222;2023-06-22T02:19:37;8.10;;;6.80;;
6485;SDS011;3276;48.490;9.222;2023-06-22T02:22:04;10.33;;;6.93;;
6485;SDS011;3276;48.490;9.222;2023-06-22T02:24:33;11.80;;;8.27;;
6485;SDS011;3276;48.490;9.222;2023-06-22T02:26:59;12.60;;;7.73;;
6485;SDS011;3276;48.490;9.222;2023-06-22T02:29:26;8.00;;;6.00;;
6485;SDS011;3276;48.490;9.222;2023-06-22T02:31:52;8.10;;;7.30;;
6485;SDS011;3276;48.490;9.222;2023-06-22T02:34:18;10.17;;;7.30;;
6485;SDS011;3276;48.490;9.222;2023-06-22T02:36:47;7.27;;;6.20;;
6485;SDS011;3276;48.490;9.222;2023-06-22T02:39:18;8.33;;;5.67;;
6485;SDS011;3276;48.490;9.222;2023-06-22T02:41:50;8.53;;;5.80;;
6485;SDS011;3276;48.490;9.222;2023-06-22T02:44:21;10.67;;;6.40;;
6485;SDS011;3276;48.490;9.222;2023-06-22T02:46:47;12.70;;;7.57;;
6485;SDS011;3276;48.490;9.222;2023-06-22T02:49:13;8.50;;;6.40;;
6485;SDS011;3276;48.490;9.222;2023-06-22T02:51:44;6.27;;;5.63;;
6485;SDS011;3276;48.490;9.222;2023-06-22T02:54:11;10.23;;;7.33;;
6485;SDS011;3276;48.490;9.222;2023-06-22T02:56:37;7.97;;;6.70;;
6485;SDS011;3276;48.490;9.222;2023-06-22T02:59:02;10.93;;;6.87;;
6485;SDS011;3276;48.490;9.222;2023-06-22T03:01:28;8.00;;;6.00;;
6485;SDS011;3276;48.490;9.222;2023-06-22T03:03:55;6.43;;;5.77;;
6485;SDS011;3276;48.490;9.222;2023-06-22T03:06:21;7.93;;;6.80;;
6485;SDS011;3276;48.490;9.222;2023-06-22T03:08:48;10.47;;;7.10;;
6485;SDS011;3276;48.490;9.222;2023-06-22T03:11:16;7.57;;;6.40;;
6485;SDS011;3276;48.490;9.222;2023-06-22T03:13:41;7.10;;;5.80;;
6485;SDS011;3276;48.490;9.222;2023-06-22T03:16:07;7.37;;;5.93;;
6485;SDS011;3276;48.490;9.222;2023-06-22T03:18:33;11.67;;;6.67;;
6485;SDS011;3276;48.490;9.222;2023-06-22T03:20:59;7.93;;;6.40;;
6485;SDS011;3276;48.490;9.222;2023-06-22T03:23:25;9.43;;;6.53;;
6485;SDS011;3276;48.490;9.222;2023-06-22T03:25:50;8.13;;;6.17;;
6485;SDS011;3276;48.490;9.222;2023-06-22T03:28:16;8.20;;;6.70;;
6485;SDS011;3276;48.490;9.222;2023-06-22T03:30:42;8.20;;;7.03;;
6485;SDS011;3276;48.490;9.222;2023-06-22T03:33:08;8.27;;;6.93;;
6485;SDS011;3276;48.490;9.222;2023-06-22T03:35:33;12.00;;;6.77;;
6485;SDS011;3276;48.490;9.222;2023-06-22T03:37:59;9.43;;;5.80;;
6485;SDS011;3276;48.490;9.222;2023-06-22T03:40:24;6.83;;;4.90;;
6485;SDS011;3276;48.490;9.222;2023-06-22T03:42:50;8.30;;;6.43;;
6485;SDS011;3276;48.490;9.222;2023-06-22T03:45:16;8.43;;;7.60;;
6485;SDS011;3276;48.490;9.222;2023-06-22T03:47:41;9.33;;;6.57;;
6485;SDS011;3276;48.490;9.222;2023-06-22T03:50:10;8.80;;;7.03;;
6485;SDS011;3276;48.490;9.222;2023-06-22T03:52:35;6.47;;;5.60;;
6485;SDS011;3276;48.490;9.222;2023-06-22T03:55:01;8.67;;;6.83;;
6485;SDS011;3276;48.490;9.222;2023-06-22T03:57:27;8.03;;;6.30;;
6485;SDS011;3276;48.490;9.222;2023-06-22T03:59:59;10.97;;;7.00;;
6485;SDS011;3276;48.490;9.222;2023-06-22T04:02:27;9.83;;;6.20;;
6485;SDS011;3276;48.490;9.222;2023-06-22T04:04:53;7.90;;;6.20;;
6485;SDS011;3276;48.490;9.222;2023-06-22T04:07:19;8.00;;;5.07;;
6485;SDS011;3276;48.490;9.222;2023-06-22T04:09:44;7.20;;;5.70;;
6485;SDS011;3276;48.490;9.222;2023-06-22T04:12:10;9.47;;;6.57;;
6485;SDS011;3276;48.490;9.222;2023-06-22T04:14:36;8.73;;;6.90;;
6485;SDS011;3276;48.490;9.222;2023-06-22T04:17:02;6.57;;;5.87;;
6485;SDS011;3276;48.490;9.222;2023-06-22T04:19:27;10.00;;;7.13;;
6485;SDS011;3276;48.490;9.222;2023-06-22T04:21:53;6.70;;;5.27;;
6485;SDS011;3276;48.490;9.222;2023-06-22T04:24:19;6.47;;;5.33;;
6485;SDS011;3276;48.490;9.222;2023-06-22T04:26:44;5.23;;;4.60;;
6485;SDS011;3276;48.490;9.222;2023-06-22T04:29:13;7.60;;;6.40;;
6485;SDS011;3276;48.490;9.222;2023-06-22T04:31:39;7.43;;;5.37;;
6485;SDS011;3276;48.490;9.222;2023-06-22T04:34:05;16.27;;;5.77;;
6485;SDS011;3276;48.490;9.222;2023-06-22T04:36:33;7.90;;;5.73;;
6485;SDS011;3276;48.490;9.222;2023-06-22T04:39:03;5.37;;;4.63;;
6485;SDS011;3276;48.490;9.222;2023-06-22T04:41:30;6.20;;;5.53;;
6485;SDS011;3276;48.490;9.222;2023-06-22T04:44:06;12.80;;;4.80;;
6485;SDS011;3276;48.490;9.222;2023-06-22T04:46:53;7.50;;;5.87;;
6485;SDS011;3276;48.490;9.222;2023-06-22T04:49:27;7.50;;;6.53;;
6485;SDS011;3276;48.490;9.222;2023-06-22T04:51:58;8.03;;;5.87;;
6485;SDS011;3276;48.490;9.222;2023-06-22T04:54:24;8.00;;;5.90;;
6485;SDS011;3276;48.490;9.222;2023-06-22T04:56:50;8.10;;;5.10;;
6485;SDS011;3276;48.490;9.222;2023-06-22T04:59:24;9.07;;;6.90;;
6485;SDS011;3276;48.490;9.222;2023-06-22T05:01:55;7.20;;;5.10;;
6485;SDS011;3276;48.490;9.222;2023-06-22T05:04:22;11.47;;;5.90;;
6485;SDS011;3276;48.490;9.222;2023-06-22T05:06:50;8.00;;;6.53;;
6485;SDS011;3276;48.490;9.222;2023-06-22T05:09:17;7.97;;;6.60;;
6485;SDS011;3276;48.490;9.222;2023-06-22T05:11:43;10.40;;;7.13;;
6485;SDS011;3276;48.490;9.222;2023-06-22T05:14:09;8.33;;;7.07;;
6485;SDS011;3276;48.490;9.222;2023-06-22T05:16:36;14.00;;;6.97;;
6485;SDS011;3276;48.490;9.222;2023-06-22T05:19:02;9.20;;;7.37;;
6485;SDS011;3276;48.490;9.222;2023-06-22T05:21:28;8.53;;;6.43;;
6485;SDS011;3276;48.490;9.222;2023-06-22T05:23:55;9.50;;;7.63;;
6485;SDS011;3276;48.490;9.222;2023-06-22T05:26:25;7.47;;;5.10;;
6485;SDS011;3276;48.490;9.222;2023-06-22T05:28:51;9.13;;;6.20;;
6485;SDS011;3276;48.490;9.222;2023-06-22T05:31:18;8.40;;;6.33;;
6485;SDS011;3276;48.490;9.222;2023-06-22T05:33:46;10.47;;;6.67;;
6485;SDS011;3276;48.490;9.222;2023-06-22T05:36:13;8.27;;;7.37;;
6485;SDS011;3276;48.490;9.222;2023-06-22T05:38:40;8.40;;;6.40;;
6485;SDS011;3276;48.490;9.222;2023-06-22T05:41:06;9.73;;;7.50;;
6485;SDS011;3276;48.490;9.222;2023-06-22T05:43:32;8.57;;;7.40;;
6485;SDS011;3276;48.490;9.222;2023-06-22T05:45:59;8.80;;;6.67;;
6485;SDS011;3276;48.490;9.222;2023-06-22T05:48:25;8.17;;;6.07;;
6485;SDS011;3276;48.490;9.222;2023-06-22T05:50:51;8.10;;;6.93;;
6485;SDS011;3276;48.490;9.222;2023-06-22T05:53:16;6.97;;;6.27;;
6485;SDS011;3276;48.490;9.222;2023-06-22T05:55:42;10.13;;;8.23;;
6485;SDS011;3276;48.490;9.222;2023-06-22T05:58:08;12.43;;;7.57;;
6485;SDS011;3276;48.490;9.222;2023-06-22T06:00:34;7.93;;;7.20;;
6485;SDS011;3276;48.490;9.222;2023-06-22T06:02:59;8.40;;;7.70;;
6485;SDS011;3276;48.490;9.222;2023-06-22T06:05:31;9.23;;;8.30;;
6485;SDS011;3276;48.490;9.222;2023-06-22T06:07:58;7.57;;;6.87;;
6485;SDS011;3276;48.490;9.222;2023-06-22T06:10:25;8.80;;;8.10;;
6485;SDS011;3276;48.490;9.222;2023-06-22T06:12:51;8.43;;;7.83;;
6485;SDS011;3276;48.490;9.222;2023-06-22T06:15:17;9.10;;;8.30;;
6485;SDS011;3276;48.490;9.222;2023-06-22T06:17:52;9.10;;;7.83;;
6485;SDS011;3276;48.490;9.222;2023-06-22T06:20:19;9.53;;;8.63;;
6485;SDS011;3276;48.490;9.222;2023-06-22T06:22:46;8.47;;;7.67;;
6485;SDS011;3276;48.490;9.222;2023-06-22T06:25:12;8.80;;;8.00;;
6485;SDS011;3276;48.490;9.222;2023-06-22T06:27:42;9.50;;;8.60;;
6485;SDS011;3276;48.490;9.222;2023-06-22T06:30:08;9.77;;;8.77;;
6485;SDS011;3276;48.490;9.222;2023-06-22T06:32:35;9.60;;;8.83;;
6485;SDS011;3276;48.490;9.222;2023-06-22T06:35:01;8.20;;;7.40;;
6485;SDS011;3276;48.490;9.222;2023-06-22T06:37:26;10.30;;;8.50;;
6485;SDS011;3276;48.490;9.222;2023-06-22T06:39:53;8.30;;;7.60;;
6485;SDS011;3276;48.490;9.222;2023-06-22T06:42:18;8.90;;;8.10;;
6485;SDS011;3276;48.490;9.222;2023-06-22T06:44:44;9.03;;;8.23;;
6485;SDS011;3276;48.490;9.222;2023-06-22T06:47:10;9.00;;;8.20;;
6485;SDS011;3276;48.490;9.222;2023-06-22T06:49:36;8.40;;;7.73;;
6485;SDS011;3276;48.490;9.222;2023-06-22T06:52:01;7.90;;;7.10;;
6485;SDS011;3276;48.490;9.222;2023-06-22T06:54:27;9.83;;;8.97;;
6485;SDS011;3276;48.490;9.222;2023-06-22T06:56:53;9.13;;;7.83;;
6485;SDS011;3276;48.490;9.222;2023-06-22T06:59:18;9.07;;;8.33;;
6485;SDS011;3276;48.490;9.222;2023-06-22T07:01:44;8.10;;;7.30;;
6485;SDS011;3276;48.490;9.222;2023-06-22T07:04:10;8.20;;;7.23;;
6485;SDS011;3276;48.490;9.222;2023-06-22T07:06:35;9.00;;;8.20;;
6485;SDS011;3276;48.490;9.222;2023-06-22T07:09:02;10.93;;;8.30;;
6485;SDS011;3276;48.490;9.222;2023-06-22T07:11:28;9.80;;;9.00;;
6485;SDS011;3276;48.490;9.222;2023-06-22T07:13:54;9.33;;;8.50;;
6485;SDS011;3276;48.490;9.222;2023-06-22T07:16:19;8.07;;;7.47;;
6485;SDS011;3276;48.490;9.222;2023-06-22T07:18:45;9.87;;;8.87;;
6485;SDS011;3276;48.490;9.222;2023-06-22T07:21:10;8.53;;;7.73;;
6485;SDS011;3276;48.490;9.222;2023-06-22T07:23:36;15.93;;;8.90;;
6485;SDS011;3276;48.490;9.222;2023-06-22T07:26:02;8.90;;;8.17;;
6485;SDS011;3276;48.490;9.222;2023-06-22T07:28:27;8.23;;;7.43;;
6485;SDS011;3276;48.490;9.222;2023-06-22T07:30:56;9.10;;;8.40;;
6485;SDS011;3276;48.490;9.222;2023-06-22T07:33:21;9.73;;;8.30;;
6485;SDS011;3276;48.490;9.222;2023-06-22T07:35:47;12.23;;;8.10;;
6485;SDS011;3276;48.490;9.222;2023-06-22T07:38:13;9.10;;;8.20;;
6485;SDS011;3276;48.490;9.222;2023-06-22T07:40:40;7.27;;;6.70;;
6485;SDS011;3276;48.490;9.222;2023-06-22T07:43:09;9.17;;;8.27;;
6485;SDS011;3276;48.490;9.222;2023-06-22T07:45:34;8.57;;;7.90;;
6485;SDS011;3276;48.490;9.222;2023-06-22T07:48:00;9.03;;;8.33;;
6485;SDS011;3276;48.490;9.222;2023-06-22T07:50:26;7.70;;;6.93;;
6485;SDS011;3276;48.490;9.222;2023-06-22T07:52:52;9.03;;;8.30;;
6485;SDS011;3276;48.490;9.222;2023-06-22T07:55:18;11.93;;;7.97;;
6485;SDS011;3276;48.490;9.222;2023-06-22T07:57:44;8.00;;;7.40;;
6485;SDS011;3276;48.490;9.222;2023-06-22T08:00:11;9.47;;;7.50;;
6485;SDS011;3276;48.490;9.222;2023-06-22T08:02:41;7.23;;;6.73;;
6485;SDS011;3276;48.490;9.222;2023-06-22T08:05:08;9.27;;;7.67;;
6485;SDS011;3276;48.490;9.222;2023-06-22T08:07:37;8.77;;;8.07;;
6485;SDS011;3276;48.490;9.222;2023-06-22T08:10:06;7.87;;;7.27;;
6485;SDS011;3276;48.490;9.222;2023-06-22T08:12:35;8.13;;;7.50;;
6485;SDS011;3276;48.490;9.222;2023-06-22T08:15:00;10.67;;;8.30;;
6485;SDS011;3276;48.490;9.222;2023-06-22T08:17:26;7.40;;;6.80;;
6485;SDS011;3276;48.490;9.222;2023-06-22T08:19:52;8.30;;;7.70;;
6485;SDS011;3276;48.490;9.222;2023-06-22T08:22:17;7.50;;;7.00;;
6485;SDS011;3276;48.490;9.222;2023-06-22T08:24:46;12.57;;;8.33;;
6485;SDS011;3276;48.490;9.222;2023-06-22T08:27:12;8.30;;;7.53;;
6485;SDS011;3276;48.490;9.222;2023-06-22T08:29:38;10.57;;;8.37;;
6485;SDS011;3276;48.490;9.222;2023-06-22T08:32:04;11.33;;;8.67;;
6485;SDS011;3276;48.490;9.222;2023-06-22T08:34:30;11.83;;;8.07;;
6485;SDS011;3276;48.490;9.222;2023-06-22T08:36:56;8.00;;;7.30;;
6485;SDS011;3276;48.490;9.222;2023-06-22T08:39:21;7.77;;;7.07;;
6485;SDS011;3276;48.490;9.222;2023-06-22T08:41:47;7.90;;;7.30;;
6485;SDS011;3276;48.490;9.222;2023-06-22T08:44:13;15.00;;;9.50;;
6485;SDS011;3276;48.490;9.222;2023-06-22T08:46:40;11.30;;;8.03;;
6485;SDS011;3276;48.490;9.222;2023-06-22T08:49:07;8.97;;;7.23;;
6485;SDS011;3276;48.490;9.222;2023-06-22T08:51:34;10.33;;;8.47;;
6485;SDS011;3276;48.490;9.222;2023-06-22T08:54:00;9.47;;;7.53;;
6485;SDS011;3276;48.490;9.222;2023-06-22T08:56:26;9.93;;;9.07;;
6485;SDS011;3276;48.490;9.222;2023-06-22T08:58:51;8.10;;;7.40;;
6485;SDS011;3276;48.490;9.222;2023-06-22T09:01:17;8.43;;;7.37;;
6485;SDS011;3276;48.490;9.222;2023-06-22T09:03:42;9.43;;;8.47;;
6485;SDS011;3276;48.490;9.222;2023-06-22T09:06:08;9.13;;;8.43;;
6485;SDS011;3276;48.490;9.222;2023-06-22T09:08:38;7.97;;;7.40;;
6485;SDS011;3276;48.490;9.222;2023-06-22T09:11:04;8.50;;;7.80;;
6485;SDS011;3276;48.490;9.222;2023-06-22T09:13:30;8.10;;;7.40;;
6485;SDS011;3276;48.490;9.222;2023-06-22T09:15:56;16.13;;;9.63;;
6485;SDS011;3276;48.490;9.222;2023-06-22T09:18:22;12.27;;;8.70;;
6485;SDS011;3276;48.490;9.222;2023-06-22T09:20:48;9.90;;;9.10;;
6485;SDS011;3276;48.490;9.222;2023-06-22T09:23:14;8.83;;;7.90;;
6485;SDS011;3276;48.490;9.222;2023-06-22T09:25:40;9.03;;;7.77;;
6485;SDS011;3276;48.490;9.222;2023-06-22T09:28:06;7.87;;;7.07;;
6485;SDS011;3276;48.490;9.222;2023-06-22T09:30:31;9.10;;;8.23;;
6485;SDS011;3276;48.490;9.222;2023-06-22T09:32:57;7.57;;;6.83;;
6485;SDS011;3276;48.490;9.222;2023-06-22T09:35:22;9.57;;;6.80;;
6485;SDS011;3276;48.490;9.222;2023-06-22T09:37:48;8.40;;;7.70;;
6485;SDS011;3276;48.490;9.222;2023-06-22T09:40:13;8.40;;;7.03;;
6485;SDS011;3276;48.490;9.222;2023-06-22T09:42:44;17.43;;;8.10;;
6485;SDS011;3276;48.490;9.222;2023-06-22T09:45:10;8.10;;;7.30;;
6485;SDS011;3276;48.490;9.222;2023-06-22T09:47:35;8.40;;;7.60;;
6485;SDS011;3276;48.490;9.222;2023-06-22T09:50:01;8.93;;;7.27;;
6485;SDS011;3276;48.490;9.222;2023-06-22T09:52:27;9.73;;;8.23;;
6485;SDS011;3276;48.490;9.222;2023-06-22T09:54:53;8.83;;;8.03;;
6485;SDS011;3276;48.490;9.222;2023-06-22T09:57:18;9.00;;;8.13;;
6485;SDS011;3276;48.490;9.222;2023-06-22T09:59:44;12.20;;;8.37;;
6485;SDS011;3276;48.490;9.222;2023-06-22T10:02:09;8.30;;;7.43;;
6485;SDS011;3276;48.490;9.222;2023-06-22T10:04:35;8.23;;;7.57;;
6485;SDS011;3276;48.490;9.222;2023-06-22T10:07:01;9.63;;;8.07;;
6485;SDS011;3276;48.490;9.222;2023-06-22T10:09:27;8.77;;;7.50;;
6485;SDS011;3276;48.490;9.222;2023-06-22T10:11:53;8.00;;;7.40;;
6485;SDS011;3276;48.490;9.222;2023-06-22T10:14:18;9.33;;;8.40;;
6485;SDS011;3276;48.490;9.222;2023-06-22T10:16:44;8.03;;;7.33;;
6485;SDS011;3276;48.490;9.222;2023-06-22T10:19:10;8.37;;;7.67;;
6485;SDS011;3276;48.490;9.222;2023-06-22T10:21:35;21.27;;;7.53;;
6485;SDS011;3276;48.490;9.222;2023-06-22T10:24:01;8.03;;;7.33;;
6485;SDS011;3276;48.490;9.222;2023-06-22T10:26:34;8.70;;;7.90;;
6485;SDS011;3276;48.490;9.222;2023-06-22T10:29:01;8.50;;;7.00;;
6485;SDS011;3276;48.490;9.222;2023-06-22T10:31:27;11.63;;;8.20;;
6485;SDS011;3276;48.490;9.222;2023-06-22T10:33:53;8.93;;;8.10;;
6485;SDS011;3276;48.490;9.222;2023-06-22T10:36:20;9.53;;;7.63;;
6485;SDS011;3276;48.490;9.222;2023-06-22T10:38:46;8.07;;;7.37;;
6485;SDS011;3276;48.490;9.222;2023-06-22T10:41:12;11.83;;;8.93;;
6485;SDS011;3276;48.490;9.222;2023-06-22T10:43:38;7.40;;;6.80;;
6485;SDS011;3276;48.490;9.222;2023-06-22T10:46:04;9.23;;;8.43;;
6485;SDS011;3276;48.490;9.222;2023-06-22T10:48:30;9.13;;;8.20;;
6485;SDS011;3276;48.490;9.222;2023-06-22T10:50:55;9.70;;;8.70;;
6485;SDS011;3276;48.490;9.222;2023-06-22T10:53:21;8.53;;;7.50;;
6485;SDS011;3276;48.490;9.222;2023-06-22T10:55:47;8.50;;;7.70;;
6485;SDS011;3276;48.490;9.222;2023-06-22T10:58:12;8.70;;;7.50;;
6485;SDS011;3276;48.490;9.222;2023-06-22T11:00:38;8.73;;;7.90;;
6485;SDS011;3276;48.490;9.222;2023-06-22T11:03:03;9.23;;;8.00;;
6485;SDS011;3276;48.490;9.222;2023-06-22T11:05:29;12.10;;;8.50;;
6485;SDS011;3276;48.490;9.222;2023-06-22T11:07:55;12.17;;;8.47;;
6485;SDS011;3276;48.490;9.222;2023-06-22T11:10:20;7.60;;;6.80;;
6485;SDS011;3276;48.490;9.222;2023-06-22T11:12:46;8.70;;;7.00;;
6485;SDS011;3276;48.490;9.222;2023-06-22T11:15:11;8.57;;;7.70;;
6485;SDS011;3276;48.490;9.222;2023-06-22T11:17:37;8.60;;;7.90;;
6485;SDS011;3276;48.490;9.222;2023-06-22T11:20:03;9.00;;;8.17;;
6485;SDS011;3276;48.490;9.222;2023-06-22T11:22:36;9.53;;;8.43;;
6485;SDS011;3276;48.490;9.222;2023-06-22T11:25:05;9.57;;;8.50;;
6485;SDS011;3276;48.490;9.222;2023-06-22T11:27:31;8.80;;;7.90;;
6485;SDS011;3276;48.490;9.222;2023-06-22T11:29:57;9.33;;;8.47;;
6485;SDS011;3276;48.490;9.222;2023-06-22T11:32:23;23.20;;;10.23;;
6485;SDS011;3276;48.490;9.222;2023-06-22T11:34:49;9.13;;;8.20;;
6485;SDS011;3276;48.490;9.222;2023-06-22T11:37:14;9.43;;;8.53;;
6485;SDS011;3276;48.490;9.222;2023-06-22T11:39:40;7.87;;;7.00;;
6485;SDS011;3276;48.490;9.222;2023-06-22T11:42:06;9.33;;;8.43;;
6485;SDS011;3276;48.490;9.222;2023-06-22T11:44:33;8.13;;;7.37;;
6485;SDS011;3276;48.490;9.222;2023-06-22T11:46:59;10.23;;;7.57;;
6485;SDS011;3276;48.490;9.222;2023-06-22T11:49:26;9.53;;;8.30;;
6485;SDS011;3276;48.490;9.222;2023-06-22T11:51:52;8.90;;;7.30;;
6485;SDS011;3276;48.490;9.222;2023-06-22T11:54:17;8.30;;;7.50;;
6485;SDS011;3276;48.490;9.222;2023-06-22T11:56:43;7.97;;;7.27;;
6485;SDS011;3276;48.490;9.222;2023-06-22T11:59:08;8.83;;;8.00;;
6485;SDS011;3276;48.490;9.222;2023-06-22T12:01:34;8.17;;;7.57;;
6485;SDS011;3276;48.490;9.222;2023-06-22T12:03:59;9.53;;;8.63;;
6485;SDS011;3276;48.490;9.222;2023-06-22T12:06:25;8.57;;;6.90;;
6485;SDS011;3276;48.490;9.222;2023-06-22T12:08:51;14.13;;;9.10;;
6485;SDS011;3276;48.490;9.222;2023-06-22T12:11:16;14.80;;;10.33;;
6485;SDS011;3276;48.490;9.222;2023-06-22T12:13:42;9.33;;;8.40;;
6485;SDS011;3276;48.490;9.222;2023-06-22T12:16:07;8.33;;;7.63;;
6485;SDS011;3276;48.490;9.222;2023-06-22T12:18:33;13.03;;;9.57;;
6485;SDS011;3276;48.490;9.222;2023-06-22T12:20:58;13.20;;;8.87;;
6485;SDS011;3276;48.490;9.222;2023-06-22T12:23:24;8.60;;;7.83;;
6485;SDS011;3276;48.490;9.222;2023-06-22T12:25:50;10.93;;;7.97;;
6485;SDS011;3276;48.490;9.222;2023-06-22T12:28:15;11.90;;;9.00;;
6485;SDS011;3276;48.490;9.222;2023-06-22T12:30:41;9.67;;;8.77;;
6485;SDS011;3276;48.490;9.222;2023-06-22T12:33:06;8.60;;;7.60;;
6485;SDS011;3276;48.490;9.222;2023-06-22T12:35:32;9.70;;;8.07;;
6485;SDS011;3276;48.490;9.222;2023-06-22T12:37:57;18.90;;;10.97;;
6485;SDS011;3276;48.490;9.222;2023-06-22T12:40:23;13.07;;;9.33;;
6485;SDS011;3276;48.490;9.222;2023-06-22T12:42:49;7.93;;;7.10;;
6485;SDS011;3276;48.490;9.222;2023-06-22T12:45:18;8.93;;;8.03;;
6485;SDS011;3276;48.490;9.222;2023-06-22T12:47:45;10.30;;;8.77;;
6485;SDS011;3276;48.490;9.222;2023-06-22T12:50:10;8.80;;;7.47;;
6485;SDS011;3276;48.490;9.222;2023-06-22T12:52:36;10.20;;;7.43;;
6485;SDS011;3276;48.490;9.222;2023-06-22T12:55:04;12.20;;;7.50;;
6485;SDS011;3276;48.490;9.222;2023-06-22T12:57:30;10.80;;;8.87;;
6485;SDS011;3276;48.490;9.222;2023-06-22T12:59:56;8.10;;;7.30;;
6485;SDS011;3276;48.490;9.222;2023-06-22T13:02:23;8.93;;;8.00;;
6485;SDS011;3276;48.490;9.222;2023-06-22T13:04:49;9.03;;;8.13;;
6485;SDS011;3276;48.490;9.222;2023-06-22T13:07:14;16.80;;;8.40;;
6485;SDS011;3276;48.490;9.222;2023-06-22T13:09:40;8.33;;;7.50;;
6485;SDS011;3276;48.490;9.222;2023-06-22T13:12:05;9.13;;;8.23;;
6485;SDS011;3276;48.490;9.222;2023-06-22T13:14:31;8.60;;;7.70;;
6485;SDS011;3276;48.490;9.222;2023-06-22T13:16:57;10.23;;;7.57;;
6485;SDS011;3276;48.490;9.222;2023-06-22T13:19:22;10.27;;;8.47;;
6485;SDS011;3276;48.490;9.222;2023-06-22T13:21:48;9.83;;;8.30;;
6485;SDS011;3276;48.490;9.222;2023-06-22T13:24:13;8.87;;;7.90;;
6485;SDS011;3276;48.490;9.222;2023-06-22T13:26:39;8.47;;;7.60;;
6485;SDS011;3276;48.490;9.222;2023-06-22T13:29:05;8.37;;;7.57;;
6485;SDS011;3276;48.490;9.222;2023-06-22T13:31:30;9.07;;;8.00;;
6485;SDS011;3276;48.490;9.222;2023-06-22T13:33:56;8.53;;;7.83;;
6485;SDS011;3276;48.490;9.222;2023-06-22T13:36:21;9.33;;;8.30;;
6485;SDS011;3276;48.490;9.222;2023-06-22T13:38:48;7.87;;;7.17;;
6485;SDS011;3276;48.490;9.222;2023-06-22T13:41:14;9.83;;;7.97;;
6485;SDS011;3276;48.490;9.222;2023-06-22T13:43:39;19.03;;;8.83;;
6485;SDS011;3276;48.490;9.222;2023-06-22T13:46:06;13.20;;;10.57;;
6485;SDS011;3276;48.490;9.222;2023-06-22T13:48:31;7.80;;;7.20;;
6485;SDS011;3276;48.490;9.222;2023-06-22T13:50:57;10.50;;;7.57;;
6485;SDS011;3276;48.490;9.222;2023-06-22T13:53:24;11.23;;;8.17;;
6485;SDS011;3276;48.490;9.222;2023-06-22T13:55:50;14.27;;;8.70;;
6485;SDS011;3276;48.490;9.222;2023-06-22T13:58:16;9.23;;;8.43;;
6485;SDS011;3276;48.490;9.222;2023-06-22T14:00:41;8.93;;;7.20;;
6485;SDS011;3276;48.490;9.222;2023-06-22T14:03:07;24.53;;;8.70;;
6485;SDS011;3276;48.490;9.222;2023-06-22T14:05:32;8.30;;;7.47;;
6485;SDS011;3276;48.490;9.222;2023-06-22T14:07:58;7.57;;;6.80;;
6485;SDS011;3276;48.490;9.222;2023-06-22T14:10:23;8.77;;;7.00;;
6485;SDS011;3276;48.490;9.222;2023-06-22T14:12:49;10.73;;;7.90;;
6485;SDS011;3276;48.490;9.222;2023-06-22T14:15:14;7.63;;;7.10;;
6485;SDS011;3276;48.490;9.222;2023-06-22T14:17:40;8.93;;;8.03;;
6485;SDS011;3276;48.490;9.222;2023-06-22T14:20:06;9.23;;;7.20;;
6485;SDS011;3276;48.490;9.222;2023-06-22T14:22:33;8.53;;;7.67;;
6485;SDS011;3276;48.490;9.222;2023-06-22T14:25:00;15.03;;;9.00;;
6485;SDS011;3276;48.490;9.222;2023-06-22T14:27:26;9.17;;;8.03;;
6485;SDS011;3276;48.490;9.222;2023-06-22T14:29:52;10.57;;;8.10;;
6485;SDS011;3276;48.490;9.222;2023-06-22T14:32:18;8.70;;;7.77;;
6485;SDS011;3276;48.490;9.222;2023-06-22T14:34:43;10.00;;;7.87;;
6485;SDS011;3276;48.490;9.222;2023-06-22T14:37:10;12.37;;;9.20;;
6485;SDS011;3276;48.490;9.222;2023-06-22T14:39:37;12.97;;;7.70;;
6485;SDS011;3276;48.490;9.222;2023-06-22T14:42:03;7.90;;;6.97;;
6485;SDS011;3276;48.490;9.222;2023-06-22T14:44:28;7.90;;;7.10;;
6485;SDS011;3276;48.490;9.222;2023-06-22T14:46:55;8.00;;;6.83;;
6485;SDS011;3276;48.490;9.222;2023-06-22T14:49:21;10.40;;;8.20;;
6485;SDS011;3276;48.490;9.222;2023-06-22T14:51:47;9.80;;;8.47;;
6485;SDS011;3276;48.490;9.222;2023-06-22T14:54:12;12.70;;;8.40;;
6485;SDS011;3276;48.490;9.222;2023-06-22T14:56:38;10.67;;;7.27;;
6485;SDS011;3276;48.490;9.222;2023-06-22T14:59:03;8.03;;;7.23;;
6485;SDS011;3276;48.490;9.222;2023-06-22T15:01:29;9.73;;;8.67;;
6485;SDS011;3276;48.490;9.222;2023-06-22T15:03:55;7.80;;;7.20;;
6485;SDS011;3276;48.490;9.222;2023-06-22T15:06:20;12.93;;;8.83;;
6485;SDS011;3276;48.490;9.222;2023-06-22T15:08:46;8.30;;;7.27;;
6485;SDS011;3276;48.490;9.222;2023-06-22T15:11:12;8.37;;;7.50;;
6485;SDS011;3276;48.490;9.222;2023-06-22T15:13:40;14.77;;;7.33;;